Time;durP1;ratioP1;P1;durP2;ratioP2;P2;SDS_P1;SDS_P2;PMS_P1;PMS_P2;Temp;Humidity;BMP_temperature;BMP_pressure;BME280_temperature;BME280_humidity;BME280_pressure;Samples;Min_cycle;Max_cycle;Signal;HPM_P1;HPM_P2
2021/09/13 00:01:00;;;;;;;6.45;3.47;;;;;;;;;;5111677;27;20416;-67
2021/09/13 00:06:55;;;;;;;8.93;3.75;;;;;;;;;;5111168;27;20823;-67
2021/09/13 00:09:22;;;;;;;7.55;3.22;;;;;;;;;;5127418;28;20024;-67
2021/09/13 00:11:48;;;;;;;6.05;3.13;;;;;;;;;;5111356;28;20028;-67
2021/09/13 00:14:14;;;;;;;5.28;3.08;;;;;;;;;;5110821;28;20472;-67
2021/09/13 00:16:41;;;;;;;7.80;3.67;;;;;;;;;;5111257;28;20103;-67
2021/09/13 00:19:07;;;;;;;7.43;3.28;;;;;;;;;;5111262;28;20077;-67
2021/09/13 00:21:33;;;;;;;6.63;3.50;;;;;;;;;;5110711;28;20020;-67
2021/09/13 00:23:59;;;;;;;10.25;3.45;;;;;;;;;;5111342;28;20027;-67
2021/09/13 00:26:25;;;;;;;7.55;3.80;;;;;;;;;;5110851;28;20035;-68
2021/09/13 00:28:51;;;;;;;7.65;4.07;;;;;;;;;;5110963;28;20020;-68
2021/09/13 00:31:18;;;;;;;8.18;2.92;;;;;;;;;;5126759;28;20031;-67
2021/09/13 00:35:00;;;;;;;6.72;3.00;;;;;;;;;;5111002;27;20517;-67
2021/09/13 00:37:27;;;;;;;7.85;3.20;;;;;;;;;;5111345;28;20053;-67
2021/09/13 00:41:06;;;;;;;7.32;3.45;;;;;;;;;;5111329;27;20388;-67
2021/09/13 00:45:32;;;;;;;6.95;3.72;;;;;;;;;;5111497;27;20408;-67
2021/09/13 00:47:58;;;;;;;9.20;3.33;;;;;;;;;;5111185;28;20043;-67
2021/09/13 00:52:55;;;;;;;6.15;2.90;;;;;;;;;;5111480;27;20400;-67
2021/09/13 00:56:25;;;;;;;4.97;2.88;;;;;;;;;;5111400;27;20504;-67
2021/09/13 00:58:52;;;;;;;8.10;3.22;;;;;;;;;;5110060;28;20552;-68
2021/09/13 01:01:19;;;;;;;10.00;2.80;;;;;;;;;;5111433;28;20063;-67
2021/09/13 01:03:45;;;;;;;5.20;2.45;;;;;;;;;;5110878;28;20030;-68
2021/09/13 01:07:13;;;;;;;6.25;3.20;;;;;;;;;;5111724;27;20393;-67
2021/09/13 01:10:38;;;;;;;9.25;3.63;;;;;;;;;;5110919;27;20396;-67
2021/09/13 01:14:56;;;;;;;11.25;4.15;;;;;;;;;;5112135;27;20388;-67
2021/09/13 01:17:23;;;;;;;6.75;3.70;;;;;;;;;;5111047;28;20024;-67
2021/09/13 01:20:41;;;;;;;7.32;3.50;;;;;;;;;;5112183;27;20911;-69
2021/09/13 01:23:09;;;;;;;9.77;3.80;;;;;;;;;;5110978;28;20107;-68
2021/09/13 01:29:58;;;;;;;8.50;3.40;;;;;;;;;;5111396;27;20317;-67
2021/09/13 01:32:25;;;;;;;8.98;3.75;;;;;;;;;;5111312;28;20054;-67
2021/09/13 01:34:51;;;;;;;8.32;3.83;;;;;;;;;;5111364;28;20020;-69
2021/09/13 01:37:17;;;;;;;6.68;3.05;;;;;;;;;;5110970;28;20093;-68
2021/09/13 01:39:44;;;;;;;7.03;3.28;;;;;;;;;;5109878;28;20032;-68
2021/09/13 01:42:10;;;;;;;7.55;3.80;;;;;;;;;;5111189;28;20027;-68
2021/09/13 01:44:36;;;;;;;8.32;4.32;;;;;;;;;;5111058;28;20028;-68
2021/09/13 01:47:02;;;;;;;8.00;3.22;;;;;;;;;;5111067;28;20012;-68
2021/09/13 01:49:29;;;;;;;12.73;3.95;;;;;;;;;;5111141;28;20082;-68
2021/09/13 01:51:55;;;;;;;6.80;3.95;;;;;;;;;;5110574;28;20035;-69
2021/09/13 01:56:14;;;;;;;8.18;3.92;;;;;;;;;;5111376;27;20415;-67
2021/09/13 02:00:28;;;;;;;9.68;3.88;;;;;;;;;;5112000;27;20392;-67
2021/09/13 02:02:54;;;;;;;11.98;4.03;;;;;;;;;;5111397;28;20379;-67
2021/09/13 02:09:18;;;;;;;11.05;4.07;;;;;;;;;;5111851;27;20321;-67
2021/09/13 02:11:44;;;;;;;8.48;3.80;;;;;;;;;;5111280;28;20035;-67
2021/09/13 02:14:10;;;;;;;8.40;4.13;;;;;;;;;;5109597;28;20024;-67
2021/09/13 02:16:36;;;;;;;11.15;4.47;;;;;;;;;;5111522;28;20529;-67
2021/09/13 02:19:22;;;;;;;7.78;3.55;;;;;;;;;;5111358;27;20501;-67
2021/09/13 02:21:48;;;;;;;8.35;4.25;;;;;;;;;;5110129;28;20032;-67
2021/09/13 02:24:14;;;;;;;8.32;3.67;;;;;;;;;;5111253;28;20020;-67
2021/09/13 02:28:04;;;;;;;10.32;3.50;;;;;;;;;;5070417;28;20383;-67
2021/09/13 02:30:30;;;;;;;6.07;3.30;;;;;;;;;;5070832;28;20025;-70
2021/09/13 02:32:57;;;;;;;8.10;3.60;;;;;;;;;;5069117;28;20031;-67
2021/09/13 02:36:11;;;;;;;8.65;3.60;;;;;;;;;;5112217;27;20397;-67
2021/09/13 02:38:37;;;;;;;8.95;4.35;;;;;;;;;;5111418;28;20020;-67
2021/09/13 02:41:03;;;;;;;7.88;3.70;;;;;;;;;;5110963;28;20533;-67
2021/09/13 02:43:29;;;;;;;9.88;4.32;;;;;;;;;;5111258;28;20031;-67
2021/09/13 02:45:55;;;;;;;6.07;3.42;;;;;;;;;;5111212;28;20095;-67
2021/09/13 02:48:21;;;;;;;8.68;4.70;;;;;;;;;;5110783;28;20426;-67
2021/09/13 02:50:48;;;;;;;7.15;3.85;;;;;;;;;;5111702;28;20020;-67
2021/09/13 02:53:14;;;;;;;8.55;4.00;;;;;;;;;;5109724;28;20102;-67
2021/09/13 02:58:18;;;;;;;8.82;4.13;;;;;;;;;;5111742;27;20927;-67
2021/09/13 03:02:21;;;;;;;8.02;4.22;;;;;;;;;;5070415;28;20403;-68
2021/09/13 03:04:47;;;;;;;9.85;4.40;;;;;;;;;;5070999;28;20495;-68
2021/09/13 03:07:13;;;;;;;10.00;5.13;;;;;;;;;;5070691;28;20029;-68
2021/09/13 03:09:40;;;;;;;8.23;4.75;;;;;;;;;;5069144;28;20045;-68
2021/09/13 03:15:39;;;;;;;7.68;3.95;;;;;;;;;;5111563;27;20520;-67
2021/09/13 03:18:05;;;;;;;9.15;4.03;;;;;;;;;;5111335;28;20028;-68
2021/09/13 03:23:07;;;;;;;7.10;4.15;;;;;;;;;;5111055;27;20892;-67
2021/09/13 03:26:19;;;;;;;7.25;3.38;;;;;;;;;;5111427;27;20513;-68
2021/09/13 03:28:45;;;;;;;7.65;3.72;;;;;;;;;;5111338;28;20028;-68
2021/09/13 03:31:11;;;;;;;7.15;4.00;;;;;;;;;;5110838;28;20102;-68
2021/09/13 03:36:08;;;;;;;11.38;3.67;;;;;;;;;;5071570;28;20474;-67
2021/09/13 03:40:18;;;;;;;9.63;3.92;;;;;;;;;;5111783;27;20393;-67
2021/09/13 03:42:44;;;;;;;6.68;3.70;;;;;;;;;;5111358;28;20024;-67
2021/09/13 03:45:10;;;;;;;6.82;3.95;;;;;;;;;;5110896;28;20028;-67
2021/09/13 03:47:36;;;;;;;7.80;4.10;;;;;;;;;;5111238;28;20015;-67
2021/09/13 03:50:03;;;;;;;6.75;3.58;;;;;;;;;;5111346;28;20039;-67
2021/09/13 03:52:29;;;;;;;7.97;3.85;;;;;;;;;;5109483;28;20028;-67
2021/09/13 03:55:06;;;;;;;10.88;3.85;;;;;;;;;;5111942;27;20392;-68
2021/09/13 03:57:32;;;;;;;13.80;4.93;;;;;;;;;;5111489;28;20422;-68
2021/09/13 04:02:15;;;;;;;10.77;4.18;;;;;;;;;;5111489;27;21035;-69
2021/09/13 04:04:44;;;;;;;6.93;3.65;;;;;;;;;;5111073;28;20073;-70
2021/09/13 04:11:55;;;;;;;10.13;4.10;;;;;;;;;;5110927;28;20036;-67
2021/09/13 04:14:22;;;;;;;11.15;4.05;;;;;;;;;;5110063;28;20024;-68
2021/09/13 04:16:49;;;;;;;11.73;3.85;;;;;;;;;;5110021;28;20365;-67
2021/09/13 04:19:15;;;;;;;14.27;4.72;;;;;;;;;;5111010;28;20074;-69
2021/09/13 04:22:11;;;;;;;7.75;3.78;;;;;;;;;;5071189;28;20411;-69
2021/09/13 04:24:37;;;;;;;7.18;3.63;;;;;;;;;;5070763;28;20024;-69
2021/09/13 04:27:04;;;;;;;11.60;4.13;;;;;;;;;;5070382;28;20473;-70
2021/09/13 04:31:12;;;;;;;12.57;4.72;;;;;;;;;;5111383;27;20397;-72
2021/09/13 04:34:51;;;;;;;6.80;4.15;;;;;;;;;;5111194;27;20916;-69
2021/09/13 04:37:17;;;;;;;6.68;3.35;;;;;;;;;;5111337;28;20514;-70
2021/09/13 04:39:43;;;;;;;8.82;3.92;;;;;;;;;;5110860;28;20024;-71
2021/09/13 04:42:09;;;;;;;6.82;3.88;;;;;;;;;;5111310;28;20095;-71
2021/09/13 04:44:38;;;;;;;6.82;3.65;;;;;;;;;;5111277;28;20020;-69
2021/09/13 04:47:04;;;;;;;8.05;4.00;;;;;;;;;;5110762;28;20030;-68
2021/09/13 04:53:01;;;;;;;8.13;3.63;;;;;;;;;;5111587;27;20389;-69
2021/09/13 04:57:55;;;;;;;6.45;3.70;;;;;;;;;;5112041;27;20393;-67
2021/09/13 05:00:23;;;;;;;8.43;4.00;;;;;;;;;;5111429;28;20020;-70
2021/09/13 05:04:21;;;;;;;8.32;3.85;;;;;;;;;;5111787;27;20392;-68
2021/09/13 05:06:48;;;;;;;8.48;3.60;;;;;;;;;;5111146;28;20046;-77
2021/09/13 05:09:14;;;;;;;9.98;4.47;;;;;;;;;;5111040;28;20052;-82
2021/09/13 05:11:42;;;;;;;8.43;4.28;;;;;;;;;;5106143;28;20027;-74
2021/09/13 05:14:08;;;;;;;14.40;5.03;;;;;;;;;;5107111;28;20130;-73
2021/09/13 05:16:36;;;;;;;8.18;4.03;;;;;;;;;;5125710;28;20086;-73
2021/09/13 05:19:02;;;;;;;8.15;4.70;;;;;;;;;;5128792;28;20114;-73
2021/09/13 05:23:40;;;;;;;9.10;3.60;;;;;;;;;;5085279;27;20462;-75
2021/09/13 05:26:06;;;;;;;8.07;3.95;;;;;;;;;;5093522;28;20025;-78
2021/09/13 05:28:33;;;;;;;6.82;4.00;;;;;;;;;;5092916;28;20032;-77
2021/09/13 05:30:59;;;;;;;14.77;4.35;;;;;;;;;;5089266;28;20655;-75
2021/09/13 05:33:25;;;;;;;9.23;4.40;;;;;;;;;;5087671;28;20027;-79
2021/09/13 05:37:44;;;;;;;7.05;3.90;;;;;;;;;;5109525;27;20446;-76
2021/09/13 05:40:51;;;;;;;8.07;3.85;;;;;;;;;;5109186;27;20393;-76
2021/09/13 05:44:06;;;;;;;9.90;3.35;;;;;;;;;;5110363;27;20973;-75
2021/09/13 05:47:34;;;;;;;8.50;4.15;;;;;;;;;;5110998;27;21052;-74
2021/09/13 05:50:00;;;;;;;8.95;4.22;;;;;;;;;;5110535;28;20376;-77
2021/09/13 05:52:27;;;;;;;6.88;4.22;;;;;;;;;;5109480;28;20447;-75
2021/09/13 05:55:59;;;;;;;5.63;3.38;;;;;;;;;;5109810;27;21156;-74
2021/09/13 06:00:33;;;;;;;10.80;4.20;;;;;;;;;;5093689;27;20411;-76
2021/09/13 06:03:08;;;;;;;12.65;7.65;;;;;;;;;;5107899;27;20992;-76
2021/09/13 06:05:35;;;;;;;9.52;4.57;;;;;;;;;;5097921;28;20520;-76
2021/09/13 06:08:01;;;;;;;7.38;4.50;;;;;;;;;;5089888;28;20021;-76
2021/09/13 06:10:27;;;;;;;6.95;3.70;;;;;;;;;;5090039;28;20062;-75
2021/09/13 06:12:54;;;;;;;7.80;3.92;;;;;;;;;;5097716;28;20028;-72
2021/09/13 06:17:27;;;;;;;6.82;3.38;;;;;;;;;;5067351;28;20391;-73
2021/09/13 06:19:54;;;;;;;8.48;3.65;;;;;;;;;;5068074;28;20033;-74
2021/09/13 06:22:20;;;;;;;9.13;3.55;;;;;;;;;;5069628;28;20078;-75
2021/09/13 06:24:47;;;;;;;7.93;4.07;;;;;;;;;;5068771;28;20059;-75
2021/09/13 06:28:46;;;;;;;13.73;6.20;;;;;;;;;;5108316;27;20788;-74
2021/09/13 06:31:13;;;;;;;7.50;4.07;;;;;;;;;;5108480;28;20485;-75
2021/09/13 06:33:39;;;;;;;6.85;3.60;;;;;;;;;;5124601;28;20436;-73
2021/09/13 06:36:06;;;;;;;8.48;4.35;;;;;;;;;;5130985;28;20089;-73
2021/09/13 06:38:32;;;;;;;10.70;4.20;;;;;;;;;;5130741;28;20028;-75
2021/09/13 06:42:09;;;;;;;7.53;4.00;;;;;;;;;;5111030;27;20385;-77
2021/09/13 06:44:37;;;;;;;6.28;3.70;;;;;;;;;;5110841;28;20384;-77
2021/09/13 06:47:09;;;;;;;7.45;3.60;;;;;;;;;;5108168;28;20024;-74
2021/09/13 06:49:36;;;;;;;7.03;4.57;;;;;;;;;;5110577;28;20023;-77
2021/09/13 06:52:03;;;;;;;7.53;3.85;;;;;;;;;;5110174;28;20432;-75
2021/09/13 06:54:30;;;;;;;8.93;4.28;;;;;;;;;;5109288;28;20035;-72
2021/09/13 06:56:58;;;;;;;9.82;4.00;;;;;;;;;;5110668;28;20050;-76
2021/09/13 07:01:26;;;;;;;8.38;4.22;;;;;;;;;;5067357;28;20453;-75
2021/09/13 07:03:57;;;;;;;17.92;4.20;;;;;;;;;;5066485;28;20104;-76
2021/09/13 07:06:52;;;;;;;7.88;4.07;;;;;;;;;;5108432;27;20749;-77
2021/09/13 07:09:18;;;;;;;8.48;4.22;;;;;;;;;;5110499;28;20480;-77
2021/09/13 07:11:44;;;;;;;10.38;3.95;;;;;;;;;;5110551;28;20020;-80
2021/09/13 07:14:11;;;;;;;8.02;4.00;;;;;;;;;;5110257;28;20536;-77
2021/09/13 07:16:37;;;;;;;10.25;4.32;;;;;;;;;;5109315;28;20032;-77
2021/09/13 07:19:34;;;;;;;8.32;3.85;;;;;;;;;;5100123;27;20112;-76
2021/09/13 07:22:00;;;;;;;7.97;4.07;;;;;;;;;;5086116;28;20026;-74
2021/09/13 07:24:26;;;;;;;9.27;3.85;;;;;;;;;;5074141;28;20027;-77
2021/09/13 07:27:22;;;;;;;9.48;4.05;;;;;;;;;;5109141;27;20966;-78
2021/09/13 07:29:48;;;;;;;6.35;3.47;;;;;;;;;;5108875;28;20107;-77
2021/09/13 07:32:14;;;;;;;6.75;3.80;;;;;;;;;;5110569;28;20027;-78
2021/09/13 07:36:37;;;;;;;7.38;4.10;;;;;;;;;;5109522;27;20397;-75
2021/09/13 07:40:20;;;;;;;11.30;4.13;;;;;;;;;;5108675;27;20385;-75
2021/09/13 07:42:46;;;;;;;7.93;4.82;;;;;;;;;;5107395;28;20044;-75
2021/09/13 07:45:12;;;;;;;6.90;4.32;;;;;;;;;;5108145;28;20038;-74
2021/09/13 07:47:39;;;;;;;8.10;4.57;;;;;;;;;;5108361;28;20047;-73
2021/09/13 07:52:16;;;;;;;8.18;4.18;;;;;;;;;;5107235;27;20900;-71
2021/09/13 07:54:42;;;;;;;9.55;3.85;;;;;;;;;;5107528;28;20028;-71
2021/09/13 07:57:37;;;;;;;9.32;4.18;;;;;;;;;;5060065;28;20399;-73
2021/09/13 08:00:04;;;;;;;11.73;3.55;;;;;;;;;;5063720;28;20029;-72
2021/09/13 08:02:31;;;;;;;7.45;4.10;;;;;;;;;;5060413;28;20033;-74
2021/09/13 08:05:01;;;;;;;11.65;4.65;;;;;;;;;;5067858;28;20021;-74
2021/09/13 08:07:27;;;;;;;9.07;4.03;;;;;;;;;;5069715;28;20108;-73
2021/09/13 08:09:53;;;;;;;7.50;3.67;;;;;;;;;;5068530;28;20028;-72
2021/09/13 08:12:19;;;;;;;7.00;3.63;;;;;;;;;;5066497;28;20021;-71
2021/09/13 08:14:46;;;;;;;6.97;3.50;;;;;;;;;;5067162;28;20451;-75
2021/09/13 08:17:12;;;;;;;9.32;4.30;;;;;;;;;;5068078;28;20089;-75
2021/09/13 08:19:40;;;;;;;10.48;4.22;;;;;;;;;;5066615;28;20024;-77
2021/09/13 08:24:17;;;;;;;8.70;3.15;;;;;;;;;;5108795;27;20457;-76
2021/09/13 08:26:43;;;;;;;7.15;3.58;;;;;;;;;;5108193;28;20024;-77
2021/09/13 08:29:17;;;;;;;6.18;3.30;;;;;;;;;;5107369;28;20051;-76
2021/09/13 08:31:53;;;;;;;7.65;3.92;;;;;;;;;;5109243;27;20392;-80
2021/09/13 08:34:20;;;;;;;8.07;4.07;;;;;;;;;;5109779;28;20099;-79
2021/09/13 08:37:28;;;;;;;7.72;3.58;;;;;;;;;;5069073;28;20461;-78
2021/09/13 08:39:54;;;;;;;6.57;3.70;;;;;;;;;;5068741;28;20062;-80
2021/09/13 08:43:53;;;;;;;10.18;4.40;;;;;;;;;;5111128;27;20373;-80
2021/09/13 08:46:33;;;;;;;8.52;4.45;;;;;;;;;;5108974;28;20035;-78
2021/09/13 08:52:58;;;;;;;7.88;4.30;;;;;;;;;;5069292;28;20148;-75
2021/09/13 08:55:26;;;;;;;9.23;4.55;;;;;;;;;;5067739;28;20485;-75
2021/09/13 08:57:52;;;;;;;8.77;3.95;;;;;;;;;;5065178;28;20039;-70
2021/09/13 09:00:19;;;;;;;7.15;4.35;;;;;;;;;;5066186;28;20500;-69
2021/09/13 09:02:46;;;;;;;10.55;4.43;;;;;;;;;;5063859;28;20059;-67
2021/09/13 09:05:13;;;;;;;7.93;4.88;;;;;;;;;;5068066;28;20064;-66
2021/09/13 09:07:50;;;;;;;9.77;4.75;;;;;;;;;;5061574;28;20025;-69
2021/09/13 09:10:18;;;;;;;10.77;4.68;;;;;;;;;;5068620;28;20370;-67
2021/09/13 09:12:58;;;;;;;7.53;3.95;;;;;;;;;;5067820;28;20032;-67
2021/09/13 09:15:25;;;;;;;12.02;3.83;;;;;;;;;;5062975;28;20420;-67
2021/09/13 09:17:56;;;;;;;6.72;3.95;;;;;;;;;;5067927;28;20112;-68
2021/09/13 09:20:23;;;;;;;11.13;5.15;;;;;;;;;;5068735;28;20067;-66
2021/09/13 09:23:05;;;;;;;16.10;12.75;;;;;;;;;;5068860;28;20539;-66
2021/09/13 09:25:35;;;;;;;8.43;5.28;;;;;;;;;;5068304;28;20025;-67
2021/09/13 09:28:03;;;;;;;9.07;4.93;;;;;;;;;;5068674;28;20070;-69
2021/09/13 09:30:40;;;;;;;7.85;4.50;;;;;;;;;;5064707;28;20764;-68
2021/09/13 09:33:17;;;;;;;9.07;4.43;;;;;;;;;;5063893;28;20662;-70
2021/09/13 09:35:54;;;;;;;7.63;4.28;;;;;;;;;;5066320;28;20031;-69
2021/09/13 09:38:32;;;;;;;11.93;3.90;;;;;;;;;;5063931;28;20116;-66
2021/09/13 09:41:09;;;;;;;9.70;3.78;;;;;;;;;;5068514;28;20100;-67
2021/09/13 09:43:49;;;;;;;7.35;4.03;;;;;;;;;;5068505;28;20381;-68
2021/09/13 09:46:16;;;;;;;9.02;4.57;;;;;;;;;;5065437;28;20390;-68
2021/09/13 09:48:42;;;;;;;6.75;4.00;;;;;;;;;;5067311;28;20139;-68
2021/09/13 09:51:27;;;;;;;15.57;4.18;;;;;;;;;;5067712;28;20105;-66
2021/09/13 09:53:53;;;;;;;7.57;4.28;;;;;;;;;;5066441;28;20757;-68
2021/09/13 09:56:19;;;;;;;7.85;4.18;;;;;;;;;;5066328;28;20021;-69
2021/09/13 09:58:57;;;;;;;9.15;3.95;;;;;;;;;;5066973;28;20021;-68
2021/09/13 10:01:31;;;;;;;9.52;4.85;;;;;;;;;;5057211;28;20076;-68
2021/09/13 10:03:57;;;;;;;8.85;4.80;;;;;;;;;;5054657;28;20029;-68
2021/09/13 10:06:24;;;;;;;8.05;4.28;;;;;;;;;;5054439;28;20027;-68
2021/09/13 10:08:50;;;;;;;7.32;4.63;;;;;;;;;;5055164;28;20052;-68
2021/09/13 10:11:16;;;;;;;10.25;4.72;;;;;;;;;;5054793;28;20043;-67
2021/09/13 10:13:42;;;;;;;8.57;4.93;;;;;;;;;;5050324;28;20067;-70
2021/09/13 10:16:09;;;;;;;11.90;4.63;;;;;;;;;;5055365;28;20083;-69
2021/09/13 10:18:35;;;;;;;8.25;4.93;;;;;;;;;;5055189;28;20052;-68
2021/09/13 10:21:01;;;;;;;7.30;4.03;;;;;;;;;;5055479;28;20465;-67
2021/09/13 10:23:28;;;;;;;7.93;4.55;;;;;;;;;;5053564;28;20032;-69
2021/09/13 10:25:54;;;;;;;10.68;4.13;;;;;;;;;;5054667;28;20044;-69
2021/09/13 10:28:20;;;;;;;7.72;4.30;;;;;;;;;;5055115;28;20028;-69
2021/09/13 10:30:53;;;;;;;8.77;4.40;;;;;;;;;;5055006;28;20047;-68
2021/09/13 10:33:19;;;;;;;6.80;4.25;;;;;;;;;;5054332;28;20040;-68
2021/09/13 10:35:56;;;;;;;8.85;4.07;;;;;;;;;;5055085;28;20500;-67
2021/09/13 10:38:41;;;;;;;9.85;4.55;;;;;;;;;;5051703;28;20029;-68
2021/09/13 10:41:07;;;;;;;8.27;4.45;;;;;;;;;;5053246;28;20436;-69
2021/09/13 10:43:33;;;;;;;8.38;4.95;;;;;;;;;;5054280;28;20048;-69
2021/09/13 10:45:59;;;;;;;9.57;4.53;;;;;;;;;;5054594;28;20033;-67
2021/09/13 10:48:26;;;;;;;7.78;4.78;;;;;;;;;;5054244;28;20508;-68
2021/09/13 10:50:53;;;;;;;10.10;4.63;;;;;;;;;;5054362;28;20477;-68
2021/09/13 10:53:19;;;;;;;9.30;4.32;;;;;;;;;;5053370;28;20116;-68
2021/09/13 10:55:48;;;;;;;8.25;3.90;;;;;;;;;;5052374;28;20021;-69
2021/09/13 10:58:18;;;;;;;8.77;4.55;;;;;;;;;;5052930;28;20032;-70
2021/09/13 11:00:45;;;;;;;7.97;4.75;;;;;;;;;;5053110;28;20028;-71
2021/09/13 11:03:23;;;;;;;7.38;3.88;;;;;;;;;;5048107;28;20025;-69
2021/09/13 11:06:13;;;;;;;18.13;4.05;;;;;;;;;;5053477;28;20093;-67
2021/09/13 11:08:46;;;;;;;8.05;3.63;;;;;;;;;;5047364;28;20041;-67
2021/09/13 11:11:16;;;;;;;7.70;3.92;;;;;;;;;;5047158;28;20033;-68
2021/09/13 11:13:44;;;;;;;6.90;3.92;;;;;;;;;;5048072;28;20025;-69
2021/09/13 11:16:11;;;;;;;8.35;4.35;;;;;;;;;;5053699;28;20024;-69
2021/09/13 11:18:38;;;;;;;10.70;4.55;;;;;;;;;;5054107;28;20021;-68
2021/09/13 11:21:20;;;;;;;8.60;4.22;;;;;;;;;;5053486;28;20029;-70
2021/09/13 11:23:46;;;;;;;8.52;4.38;;;;;;;;;;5054163;28;20032;-68
2021/09/13 11:26:15;;;;;;;10.45;4.07;;;;;;;;;;5053356;28;20024;-67
2021/09/13 11:28:54;;;;;;;8.55;3.97;;;;;;;;;;5050790;28;20024;-68
2021/09/13 11:31:35;;;;;;;7.43;3.88;;;;;;;;;;5053897;28;20095;-68
2021/09/13 11:34:03;;;;;;;8.03;4.10;;;;;;;;;;5053940;28;20055;-67
2021/09/13 11:36:30;;;;;;;6.85;3.92;;;;;;;;;;5053321;28;20040;-68
2021/09/13 11:39:01;;;;;;;9.57;4.05;;;;;;;;;;5052415;28;20485;-67
2021/09/13 11:41:27;;;;;;;9.02;4.03;;;;;;;;;;5053113;28;20055;-68
2021/09/13 11:44:09;;;;;;;8.52;4.28;;;;;;;;;;5053676;28;20025;-68
2021/09/13 11:46:35;;;;;;;;;;;;;;;;;;5052850;28;20033;-68
2021/09/13 11:49:14;;;;;;;8.55;4.05;;;;;;;;;;5048260;28;19916;-66
2021/09/13 11:52:03;;;;;;;5.75;3.25;;;;;;;;;;5049907;28;20021;-67
2021/09/13 11:54:30;;;;;;;6.60;3.85;;;;;;;;;;5052989;28;20039;-66
2021/09/13 11:56:56;;;;;;;6.82;3.85;;;;;;;;;;5052102;28;20373;-67
2021/09/13 11:59:23;;;;;;;14.65;4.55;;;;;;;;;;5051125;28;20033;-67
2021/09/13 12:02:03;;;;;;;7.93;3.75;;;;;;;;;;5051464;28;20051;-67
2021/09/13 12:04:30;;;;;;;8.63;3.97;;;;;;;;;;5052554;28;20110;-67
2021/09/13 12:07:09;;;;;;;9.00;3.75;;;;;;;;;;5052381;28;20053;-66
2021/09/13 12:09:37;;;;;;;6.60;3.70;;;;;;;;;;5051503;28;20486;-67
2021/09/13 12:12:03;;;;;;;6.90;3.58;;;;;;;;;;5041850;28;20033;-65
2021/09/13 12:14:30;;;;;;;8.98;4.00;;;;;;;;;;5038102;28;20048;-66
2021/09/13 12:17:28;;;;;;;6.70;3.22;;;;;;;;;;5051226;28;20059;-66
2021/09/13 12:20:10;;;;;;;8.27;4.30;;;;;;;;;;5020421;28;20424;-66
2021/09/13 12:22:37;;;;;;;7.40;4.10;;;;;;;;;;5049366;28;20428;-66
2021/09/13 12:25:11;;;;;;;6.05;3.42;;;;;;;;;;5047698;28;20067;-66
2021/09/13 12:27:46;;;;;;;6.75;3.40;;;;;;;;;;5051660;28;20021;-67
2021/09/13 12:30:14;;;;;;;7.75;3.20;;;;;;;;;;5051096;28;20090;-67
2021/09/13 12:32:48;;;;;;;6.57;3.50;;;;;;;;;;5052051;28;20048;-67
2021/09/13 12:35:14;;;;;;;7.72;3.35;;;;;;;;;;5051150;28;20082;-67
2021/09/13 12:37:41;;;;;;;5.75;3.35;;;;;;;;;;5051706;28;20021;-67
2021/09/13 12:40:18;;;;;;;6.47;3.40;;;;;;;;;;5053152;28;20100;-68
2021/09/13 12:42:51;;;;;;;7.45;3.38;;;;;;;;;;5052023;28;20025;-69
2021/09/13 12:45:18;;;;;;;7.90;2.97;;;;;;;;;;5052662;28;20420;-68
2021/09/13 12:47:57;;;;;;;5.78;3.53;;;;;;;;;;5052929;28;20048;-70
2021/09/13 12:50:30;;;;;;;5.30;2.78;;;;;;;;;;5049972;28;20063;-68
2021/09/13 12:52:58;;;;;;;5.43;3.30;;;;;;;;;;5045260;28;20390;-69
2021/09/13 12:55:24;;;;;;;8.48;3.83;;;;;;;;;;5051913;28;20021;-68
2021/09/13 12:57:51;;;;;;;5.30;2.75;;;;;;;;;;5050406;28;20096;-68
2021/09/13 13:00:18;;;;;;;6.55;3.63;;;;;;;;;;5045965;28;20021;-68
2021/09/13 13:03:04;;;;;;;5.70;2.70;;;;;;;;;;5030847;28;20029;-67
2021/09/13 13:05:34;;;;;;;4.32;2.33;;;;;;;;;;5029499;28;20402;-67
2021/09/13 13:08:02;;;;;;;6.00;2.85;;;;;;;;;;5029385;28;20377;-69
2021/09/13 13:10:28;;;;;;;7.28;3.00;;;;;;;;;;5032884;28;20385;-68
2021/09/13 13:12:54;;;;;;;7.68;3.13;;;;;;;;;;5043428;28;20029;-69
2021/09/13 13:15:21;;;;;;;5.68;2.97;;;;;;;;;;5030719;28;20036;-69
2021/09/13 13:17:47;;;;;;;8.70;3.20;;;;;;;;;;5031701;28;20120;-68
2021/09/13 13:20:19;;;;;;;7.40;2.80;;;;;;;;;;5031126;28;20420;-68
2021/09/13 13:22:45;;;;;;;6.10;3.28;;;;;;;;;;5031534;28;20029;-68
2021/09/13 13:25:11;;;;;;;6.30;3.25;;;;;;;;;;5032754;28;20079;-69
2021/09/13 13:27:39;;;;;;;6.60;3.55;;;;;;;;;;5032226;28;20520;-69
2021/09/13 13:30:06;;;;;;;6.93;3.75;;;;;;;;;;5032784;28;20482;-67
2021/09/13 13:32:32;;;;;;;6.45;3.00;;;;;;;;;;5032683;28;20482;-69
2021/09/13 13:34:58;;;;;;;6.38;3.05;;;;;;;;;;5032697;28;20029;-69
2021/09/13 13:37:25;;;;;;;5.70;3.17;;;;;;;;;;5036658;28;20022;-68
2021/09/13 13:39:51;;;;;;;9.05;3.25;;;;;;;;;;5035419;28;20064;-68
2021/09/13 13:42:18;;;;;;;6.35;2.88;;;;;;;;;;5033599;28;20026;-68
2021/09/13 13:44:44;;;;;;;5.68;3.22;;;;;;;;;;5033551;28;20486;-70
2021/09/13 13:47:10;;;;;;;6.68;3.38;;;;;;;;;;5034383;28;20021;-68
2021/09/13 13:49:36;;;;;;;6.03;3.28;;;;;;;;;;5035039;28;20045;-69
2021/09/13 13:52:03;;;;;;;6.05;2.85;;;;;;;;;;5035794;28;20482;-69
2021/09/13 13:54:29;;;;;;;6.50;3.25;;;;;;;;;;5034148;28;20037;-69
2021/09/13 13:56:55;;;;;;;6.40;3.28;;;;;;;;;;5035439;28;20600;-69
2021/09/13 13:59:21;;;;;;;4.65;2.25;;;;;;;;;;5035748;28;20048;-69
2021/09/13 14:01:47;;;;;;;6.90;3.33;;;;;;;;;;5035111;28;20394;-67
2021/09/13 14:04:14;;;;;;;6.10;3.13;;;;;;;;;;5035038;28;20083;-69
2021/09/13 14:06:40;;;;;;;5.13;2.75;;;;;;;;;;5035337;28;20036;-69
2021/09/13 14:09:06;;;;;;;5.88;2.85;;;;;;;;;;5034383;28;20079;-69
2021/09/13 14:11:32;;;;;;;4.20;2.60;;;;;;;;;;5034744;28;20044;-68
2021/09/13 14:13:58;;;;;;;7.60;3.22;;;;;;;;;;5035204;28;20101;-68
2021/09/13 14:16:26;;;;;;;5.10;2.80;;;;;;;;;;5035016;28;20044;-68
2021/09/13 14:18:54;;;;;;;7.72;4.28;;;;;;;;;;5035461;28;20056;-68
2021/09/13 14:21:20;;;;;;;7.00;3.00;;;;;;;;;;5034201;28;20022;-70
2021/09/13 14:23:49;;;;;;;4.90;2.72;;;;;;;;;;5035361;28;20045;-70
2021/09/13 14:26:15;;;;;;;6.18;2.95;;;;;;;;;;5035837;28;20017;-69
2021/09/13 14:28:42;;;;;;;5.05;2.92;;;;;;;;;;5034462;28;20037;-69
2021/09/13 14:31:08;;;;;;;4.53;2.80;;;;;;;;;;5035342;28;20025;-70
2021/09/13 14:33:35;;;;;;;5.88;2.55;;;;;;;;;;5035744;28;20093;-68
2021/09/13 14:36:02;;;;;;;5.53;2.80;;;;;;;;;;5035605;28;20021;-67
2021/09/13 14:38:28;;;;;;;6.97;3.45;;;;;;;;;;5052519;28;20378;-69
2021/09/13 14:40:54;;;;;;;5.40;3.17;;;;;;;;;;5055423;28;20104;-69
2021/09/13 14:43:20;;;;;;;8.02;3.30;;;;;;;;;;5055339;28;20474;-68
2021/09/13 14:45:51;;;;;;;6.07;2.83;;;;;;;;;;5054804;28;20151;-68
2021/09/13 14:48:17;;;;;;;5.95;3.50;;;;;;;;;;5055305;28;20025;-73
2021/09/13 14:50:44;;;;;;;5.30;3.10;;;;;;;;;;5054083;28;20025;-73
2021/09/13 14:53:10;;;;;;;7.15;2.83;;;;;;;;;;5054102;28;20051;-72
2021/09/13 14:55:37;;;;;;;9.40;3.25;;;;;;;;;;5055237;28;20477;-72
2021/09/13 14:58:04;;;;;;;4.90;3.08;;;;;;;;;;5055218;28;20075;-72
2021/09/13 15:00:30;;;;;;;8.27;3.90;;;;;;;;;;5054707;28;20021;-71
2021/09/13 15:02:56;;;;;;;10.10;5.78;;;;;;;;;;5055355;28;20554;-71
2021/09/13 15:05:22;;;;;;;6.30;3.45;;;;;;;;;;5053773;28;20108;-71
2021/09/13 15:07:50;;;;;;;7.35;2.97;;;;;;;;;;5054665;28;20483;-71
2021/09/13 15:10:16;;;;;;;5.35;2.63;;;;;;;;;;5054847;28;20045;-71
2021/09/13 15:12:44;;;;;;;4.95;3.13;;;;;;;;;;5053226;28;20029;-71
2021/09/13 15:15:10;;;;;;;9.23;3.00;;;;;;;;;;5054983;28;20033;-70
2021/09/13 15:17:39;;;;;;;5.43;2.90;;;;;;;;;;5054732;28;20025;-70
2021/09/13 15:20:06;;;;;;;5.32;3.38;;;;;;;;;;5054298;28;20022;-71
2021/09/13 15:22:32;;;;;;;5.93;3.30;;;;;;;;;;5054664;28;20021;-70
2021/09/13 15:24:59;;;;;;;6.45;3.28;;;;;;;;;;5054717;28;20021;-70
2021/09/13 15:27:25;;;;;;;5.40;2.97;;;;;;;;;;5054123;28;20021;-70
2021/09/13 15:29:51;;;;;;;5.43;3.08;;;;;;;;;;5054619;28;20033;-70
2021/09/13 15:32:17;;;;;;;5.95;2.97;;;;;;;;;;5054645;28;20309;-70
2021/09/13 15:34:43;;;;;;;6.72;3.58;;;;;;;;;;5054109;28;20036;-71
2021/09/13 15:37:10;;;;;;;10.88;3.70;;;;;;;;;;5054380;28;20470;-69
2021/09/13 15:39:36;;;;;;;4.18;2.78;;;;;;;;;;5054323;28;20167;-71
2021/09/13 15:42:02;;;;;;;6.85;3.50;;;;;;;;;;5052788;28;20418;-72
2021/09/13 15:44:28;;;;;;;6.10;3.17;;;;;;;;;;5054371;28;20504;-71
2021/09/13 15:46:57;;;;;;;5.70;2.95;;;;;;;;;;5054180;28;20104;-70
2021/09/13 15:49:24;;;;;;;6.93;3.03;;;;;;;;;;5053570;28;20406;-70
2021/09/13 15:51:50;;;;;;;6.00;3.13;;;;;;;;;;5054136;28;20028;-71
2021/09/13 15:54:16;;;;;;;7.47;3.15;;;;;;;;;;5054192;28;20059;-71
2021/09/13 15:56:43;;;;;;;6.70;3.15;;;;;;;;;;5053645;28;20032;-71
2021/09/13 15:59:09;;;;;;;9.50;3.17;;;;;;;;;;5053837;28;20033;-71
2021/09/13 16:01:35;;;;;;;4.97;2.67;;;;;;;;;;5054048;28;20025;-70
2021/09/13 16:04:02;;;;;;;7.43;3.40;;;;;;;;;;5052324;28;20025;-69
2021/09/13 16:06:28;;;;;;;7.47;3.60;;;;;;;;;;5053675;28;20025;-69
2021/09/13 16:08:54;;;;;;;6.30;2.90;;;;;;;;;;5053590;28;20060;-70
2021/09/13 16:11:20;;;;;;;5.97;3.05;;;;;;;;;;5053738;28;20025;-70
2021/09/13 16:13:46;;;;;;;5.60;2.65;;;;;;;;;;5053690;28;20021;-70
2021/09/13 16:16:13;;;;;;;6.80;3.20;;;;;;;;;;5053302;28;20033;-70
2021/09/13 16:18:39;;;;;;;5.10;3.08;;;;;;;;;;5053457;28;20104;-70
2021/09/13 16:21:05;;;;;;;8.27;2.97;;;;;;;;;;5052512;28;20366;-70